X  Tanca Dades meteorològiques de l'aviació METAR     LYNI Nis Airport
Temperatura
0°C Temperatura
-2°C Rosada
87% Humitat



Vent
0 KM/H
0 MPH
0 M/S
0 NUS



Tranquil
N
Condicions actuals

Majoritàriament núvols dispersos Majoritàriament núvols dispersos
Pressió 1015.92 (hPa) - 30 (inHg)
Visibilitat 5 (milla) - 8 (km)
Aeroport
Codi aeroport LYNI

Ubicació: Nis Airport
Distància: 63 (km)

Metar:
LYNI 310330Z 00000KT 8000 SCT017 BKN030 00/M02 Q1016 NOSIG

Temps: 31-01-2023 04:30 CET